Time;durP1;ratioP1;P1;durP2;ratioP2;P2;SDS_P1;SDS_P2;PMS_P1;PMS_P2;Temp;Humidity;BMP_temperature;BMP_pressure;BME280_temperature;BME280_humidity;BME280_pressure;Samples;Min_cycle;Max_cycle;Signal;HPM_P1;HPM_P2
2022/05/12 00:02:00;;;;;;;8.45;5.95;;;;;;;16.43;52.12;101606.44;5026870;28;20498;-90
2022/05/12 00:04:26;;;;;;;10.05;6.18;;;;;;;16.40;52.53;101606.59;5010277;28;20034;-90
2022/05/12 00:06:52;;;;;;;7.35;5.78;;;;;;;16.38;52.49;101613.69;5010553;28;20080;-90
2022/05/12 00:09:17;;;;;;;9.02;5.97;;;;;;;16.19;52.85;101588.63;5010230;28;20486;-89
2022/05/12 00:11:42;;;;;;;7.65;6.05;;;;;;;16.32;52.61;101610.50;5010355;28;20041;-90
2022/05/12 00:14:08;;;;;;;9.00;5.72;;;;;;;16.27;52.59;101611.69;5010352;28;20076;-89
2022/05/12 00:16:33;;;;;;;10.48;5.53;;;;;;;16.22;52.29;101609.34;5026723;28;20026;-91
2022/05/12 00:18:59;;;;;;;7.18;5.57;;;;;;;16.24;52.31;101617.94;4993786;28;20029;-90
2022/05/12 00:21:25;;;;;;;8.00;5.72;;;;;;;16.13;51.78;101607.25;5026758;28;20030;-90
2022/05/12 00:23:56;;;;;;;7.88;5.40;;;;;;;16.16;51.62;101614.91;5009893;28;20032;-90
2022/05/12 00:26:26;;;;;;;7.20;5.35;;;;;;;16.11;51.65;101605.63;5025832;28;20558;-90
2022/05/12 00:28:51;;;;;;;7.78;5.53;;;;;;;16.13;51.28;101602.03;5026602;28;20025;-89
2022/05/12 00:31:17;;;;;;;8.60;5.45;;;;;;;16.12;51.53;101599.50;5026572;28;20034;-90
2022/05/12 00:33:42;;;;;;;6.82;5.43;;;;;;;16.01;51.65;101597.47;4993748;28;20037;-90
2022/05/12 00:36:08;;;;;;;6.20;5.55;;;;;;;16.05;51.76;101618.13;5010183;28;20026;-90
2022/05/12 00:38:33;;;;;;;6.30;5.30;;;;;;;16.08;51.76;101624.94;5026307;28;20033;-90
2022/05/12 00:40:59;;;;;;;6.47;5.07;;;;;;;15.93;51.82;101620.59;5009985;28;20483;-90
2022/05/12 00:43:33;;;;;;;6.38;5.25;;;;;;;15.89;51.67;101619.06;4993676;28;20100;-90
2022/05/12 00:45:59;;;;;;;6.75;5.22;;;;;;;15.86;51.67;101603.56;5010913;28;20068;-90
2022/05/12 00:48:25;;;;;;;7.07;5.55;;;;;;;15.96;51.31;101618.63;5010242;28;20057;-90
2022/05/12 00:50:50;;;;;;;5.88;5.13;;;;;;;15.93;51.34;101616.22;4995198;28;20069;-90
2022/05/12 00:53:16;;;;;;;7.45;5.60;;;;;;;15.96;51.44;101623.84;5013721;28;20069;-90
2022/05/12 00:55:43;;;;;;;10.25;5.50;;;;;;;15.93;51.57;101629.25;5030418;28;20029;-90
2022/05/12 00:58:10;;;;;;;9.55;5.53;;;;;;;15.97;51.08;101635.97;5013852;28;20030;-90
2022/05/12 01:00:36;;;;;;;7.18;5.50;;;;;;;15.95;51.53;101629.16;5014206;28;20522;-90
2022/05/12 01:03:05;;;;;;;6.93;5.50;;;;;;;15.93;51.55;101633.63;5013958;28;20022;-89
2022/05/12 01:05:31;;;;;;;6.85;5.60;;;;;;;15.86;51.66;101624.44;5013835;28;20022;-88
2022/05/12 01:07:56;;;;;;;7.28;5.43;;;;;;;15.93;52.13;101631.03;4996767;28;20048;-89
2022/05/12 01:10:22;;;;;;;8.30;5.35;;;;;;;15.78;52.60;101614.44;5014008;28;20030;-90
2022/05/12 01:12:48;;;;;;;7.47;5.53;;;;;;;15.83;52.41;101629.81;5013915;28;20076;-90
2022/05/12 01:15:14;;;;;;;5.88;5.28;;;;;;;15.87;51.87;101626.97;5013513;28;20030;-90
2022/05/12 01:17:39;;;;;;;7.35;5.68;;;;;;;15.87;51.63;101631.34;5013456;28;20388;-90
2022/05/12 01:20:06;;;;;;;7.15;5.88;;;;;;;15.76;51.40;101609.31;5029583;28;20084;-90
2022/05/12 01:22:55;;;;;;;7.22;5.80;;;;;;;15.92;51.54;101637.13;5013052;28;20033;-90
2022/05/12 01:25:23;;;;;;;6.50;5.50;;;;;;;15.86;51.35;101632.28;5014398;28;20026;-90
2022/05/12 01:27:49;;;;;;;6.70;5.13;;;;;;;15.87;51.38;101637.41;4996952;28;20030;-90
2022/05/12 01:30:16;;;;;;;7.38;5.63;;;;;;;15.89;51.61;101643.38;5029508;28;20049;-90
2022/05/12 01:32:46;;;;;;;6.78;5.38;;;;;;;15.75;52.05;101632.88;4996869;28;20025;-89
2022/05/12 01:35:12;;;;;;;6.10;5.50;;;;;;;15.68;52.74;101634.13;5013101;28;20040;-89
2022/05/12 01:37:39;;;;;;;8.98;5.57;;;;;;;15.69;53.05;101636.63;5029050;28;20025;-90
2022/05/12 01:40:05;;;;;;;6.85;5.68;;;;;;;15.75;51.94;101625.88;5013260;28;20105;-90
2022/05/12 01:42:31;;;;;;;7.50;5.60;;;;;;;15.69;52.02;101607.94;5029576;28;20034;-90
2022/05/12 01:44:56;;;;;;;7.70;5.80;;;;;;;15.87;51.77;101640.03;4996659;28;20025;-90
2022/05/12 01:47:22;;;;;;;7.88;5.90;;;;;;;15.75;51.89;101628.50;5012931;28;20534;-90
2022/05/12 01:49:48;;;;;;;6.85;5.70;;;;;;;15.63;51.70;101616.13;5012915;28;20481;-90
2022/05/12 01:52:13;;;;;;;10.20;5.85;;;;;;;15.63;52.64;101629.16;5012405;28;20507;-90
2022/05/12 01:54:39;;;;;;;7.75;5.63;;;;;;;15.68;52.56;101631.50;5012641;28;20038;-90
2022/05/12 01:57:04;;;;;;;6.55;5.70;;;;;;;15.64;52.30;101625.63;5028984;28;20030;-89
2022/05/12 01:59:30;;;;;;;10.30;5.90;;;;;;;15.58;52.19;101628.53;5028948;28;20530;-89
2022/05/12 02:01:55;;;;;;;6.32;5.60;;;;;;;15.50;52.97;101641.97;5011706;28;20041;-90
2022/05/12 02:04:21;;;;;;;7.55;6.13;;;;;;;15.50;52.73;101641.97;5028678;28;20053;-89
2022/05/12 02:06:46;;;;;;;13.20;7.72;;;;;;;15.32;53.07;101627.28;5028493;28;20414;-90
2022/05/12 02:09:12;;;;;;;9.68;7.57;;;;;;;15.31;52.92;101630.00;5012746;28;20510;-90
2022/05/12 02:11:38;;;;;;;8.90;6.75;;;;;;;15.33;53.37;101649.84;5012295;28;20064;-89
2022/05/12 02:14:04;;;;;;;7.60;6.10;;;;;;;15.35;53.22;101649.78;5012631;28;20506;-90
2022/05/12 02:16:30;;;;;;;7.43;5.85;;;;;;;15.35;53.42;101653.22;5012452;28;20475;-90
2022/05/12 02:18:55;;;;;;;11.32;6.03;;;;;;;15.24;53.51;101652.06;4995954;28;20119;-89
2022/05/12 02:21:21;;;;;;;9.27;6.53;;;;;;;15.16;53.72;101648.13;5012390;28;20058;-90
2022/05/12 02:23:47;;;;;;;9.13;6.82;;;;;;;15.11;54.16;101657.94;5012056;28;20491;-89
2022/05/12 02:26:12;;;;;;;8.13;6.40;;;;;;;15.04;54.17;101642.69;5028437;28;20057;-90
2022/05/12 02:28:38;;;;;;;9.18;7.32;;;;;;;14.94;54.27;101637.09;5012203;28;20521;-90
2022/05/12 02:31:03;;;;;;;9.77;7.45;;;;;;;14.94;54.46;101655.34;5012336;28;20040;-89
2022/05/12 02:33:29;;;;;;;11.00;7.90;;;;;;;14.80;54.56;101634.38;5028318;28;20033;-89
2022/05/12 02:38:30;;;;;;;8.20;6.78;;;;;;;14.66;55.38;101618.59;5133244;22;20656;-90
2022/05/12 02:40:55;;;;;;;9.13;6.45;;;;;;;14.84;55.06;101643.69;5011935;28;20042;-89
2022/05/12 02:43:24;;;;;;;7.53;5.97;;;;;;;14.92;54.82;101649.38;4995502;28;20088;-87
2022/05/12 02:45:59;;;;;;;6.82;6.13;;;;;;;14.80;54.60;101637.81;5011937;28;20108;-89
2022/05/12 02:48:33;;;;;;;7.03;6.07;;;;;;;14.77;55.02;101650.16;5011545;28;20104;-89
2022/05/12 02:50:59;;;;;;;7.97;6.60;;;;;;;14.83;55.41;101655.88;5011718;28;20117;-88
2022/05/12 02:53:25;;;;;;;7.47;6.68;;;;;;;14.80;54.55;101648.22;5011618;28;20026;-89
2022/05/12 02:55:50;;;;;;;9.30;7.22;;;;;;;14.71;55.28;101650.47;4995346;28;20029;-89
2022/05/12 02:58:16;;;;;;;9.25;6.63;;;;;;;14.55;55.80;101661.66;5011960;28;20127;-89
2022/05/12 03:00:41;;;;;;;9.00;6.97;;;;;;;14.48;56.28;101649.84;5011341;28;20022;-89
2022/05/12 03:03:07;;;;;;;8.02;6.38;;;;;;;14.68;56.42;101663.63;4995506;28;20121;-91
2022/05/12 03:05:33;;;;;;;8.10;5.75;;;;;;;15.45;54.29;101659.63;5011782;28;20030;-88
2022/05/12 03:07:58;;;;;;;7.43;5.97;;;;;;;15.37;54.40;101671.41;4994581;28;20034;-89
2022/05/12 03:10:24;;;;;;;9.13;5.93;;;;;;;15.50;53.67;101672.44;5010923;28;20112;-89
2022/05/12 03:12:50;;;;;;;8.90;5.57;;;;;;;15.70;53.22;101659.19;5011277;28;20022;-88
2022/05/12 03:15:16;;;;;;;11.05;5.88;;;;;;;16.04;52.17;101671.25;5011591;28;20038;-88
2022/05/12 03:17:43;;;;;;;16.73;6.78;;;;;;;16.14;51.64;101674.19;4994810;28;20529;-88
2022/05/12 03:20:10;;;;;;;34.83;7.00;;;;;;;16.26;51.56;101670.91;5027755;28;20064;-89
2022/05/12 03:22:36;;;;;;;17.45;7.03;;;;;;;16.17;51.71;101683.63;5010858;28;20044;-88
2022/05/12 03:25:03;;;;;;;14.65;6.60;;;;;;;16.18;51.37;101665.25;5011057;28;20053;-88
2022/05/12 03:27:29;;;;;;;10.95;6.40;;;;;;;16.20;51.37;101673.84;5010969;28;20029;-89
2022/05/12 03:29:55;;;;;;;31.02;7.35;;;;;;;16.31;51.06;101681.06;5009002;28;20033;-90
2022/05/12 03:32:20;;;;;;;22.15;7.40;;;;;;;16.20;51.52;101679.06;4993929;28;20439;-88
2022/05/12 03:34:46;;;;;;;21.08;7.20;;;;;;;16.17;51.55;101683.63;5010327;28;20030;-88
2022/05/12 03:37:12;;;;;;;16.15;6.85;;;;;;;16.17;51.84;101684.47;4993861;28;20037;-89
2022/05/12 03:39:39;;;;;;;11.18;6.68;;;;;;;16.11;52.23;101690.00;4977304;28;20042;-88
2022/05/12 03:42:06;;;;;;;12.35;7.05;;;;;;;15.88;52.84;101666.94;5010357;28;20434;-88
2022/05/12 03:44:47;;;;;;;12.82;6.68;;;;;;;16.59;51.20;101669.91;4994093;28;20033;-86
2022/05/12 03:47:23;;;;;;;18.77;6.47;;;;;;;17.67;49.23;101696.59;4981836;28;20036;-85
2022/05/12 03:49:49;;;;;;;10.13;6.53;;;;;;;18.44;47.64;101687.38;5009991;28;20033;-85
2022/05/12 03:52:15;;;;;;;14.70;6.07;;;;;;;18.80;46.04;101689.41;4993141;28;20032;-86
2022/05/12 03:54:41;;;;;;;9.45;6.03;;;;;;;18.95;45.51;101693.59;4993795;28;20030;-86
2022/05/12 03:57:07;;;;;;;11.75;7.40;;;;;;;19.17;45.00;101703.47;4993842;28;20021;-85
2022/05/12 03:59:33;;;;;;;14.73;6.85;;;;;;;18.89;45.18;101673.91;4977446;28;20033;-87
2022/05/12 04:01:59;;;;;;;7.63;6.38;;;;;;;19.21;44.77;101684.00;5009768;28;20033;-85
2022/05/12 04:04:24;;;;;;;15.27;8.52;;;;;;;19.22;44.60;101695.31;4993051;28;20034;-86
2022/05/12 04:06:50;;;;;;;11.68;6.88;;;;;;;19.01;45.34;101701.06;4992467;28;20038;-84
2022/05/12 04:09:15;;;;;;;11.13;6.57;;;;;;;19.30;44.63;101706.97;4993635;28;20026;-85
2022/05/12 04:11:40;;;;;;;7.90;6.07;;;;;;;19.14;44.81;101694.03;5009777;28;20034;-88
2022/05/12 04:14:06;;;;;;;10.48;7.60;;;;;;;18.76;46.58;101714.13;5007277;28;20065;-87
2022/05/12 04:16:32;;;;;;;10.70;6.95;;;;;;;18.17;47.58;101697.84;4992867;28;20030;-88
2022/05/12 04:18:58;;;;;;;9.23;6.70;;;;;;;17.93;48.71;101695.03;4990905;28;20062;-91
2022/05/12 04:21:24;;;;;;;12.40;9.60;;;;;;;17.83;49.13;101697.38;5009923;28;20034;-88
2022/05/12 04:23:50;;;;;;;8.63;7.55;;;;;;;17.71;48.75;101713.84;5009614;28;20501;-91
2022/05/12 04:26:16;;;;;;;9.40;6.65;;;;;;;17.45;49.74;101708.38;5009510;28;20026;-89
2022/05/12 04:28:41;;;;;;;9.90;6.93;;;;;;;17.35;49.82;101707.25;5009770;28;20030;-89
2022/05/12 04:31:07;;;;;;;13.52;6.88;;;;;;;17.73;49.32;101706.72;5008781;28;20391;-87
2022/05/12 04:36:16;;;;;;;11.27;6.75;;;;;;;18.36;47.52;101711.44;5010444;28;20049;-90
2022/05/12 04:38:42;;;;;;;16.63;7.45;;;;;;;18.62;47.13;101718.47;5009196;28;20057;-89
2022/05/12 04:41:08;;;;;;;12.35;9.10;;;;;;;18.58;45.81;101724.00;4996961;28;20025;-90
2022/05/12 04:43:34;;;;;;;17.73;8.00;;;;;;;18.52;46.79;101720.00;4992691;28;20038;-86
2022/05/12 04:45:59;;;;;;;17.40;10.95;;;;;;;18.85;46.44;101719.59;5009374;28;20033;-89
2022/05/12 04:48:25;;;;;;;21.48;10.85;;;;;;;19.05;45.70;101726.13;5008953;28;20083;-89
2022/05/12 04:50:51;;;;;;;14.90;8.57;;;;;;;18.83;45.69;101726.72;5008140;28;20478;-88
2022/05/12 04:53:16;;;;;;;11.25;7.70;;;;;;;18.59;47.04;101734.41;5011834;28;20041;-92
2022/05/12 04:55:43;;;;;;;12.65;7.38;;;;;;;18.55;46.53;101717.19;4996949;28;20037;-93
2022/05/12 04:58:08;;;;;;;17.23;8.32;;;;;;;18.65;46.42;101727.94;4985757;28;20034;-91
2022/05/12 05:00:36;;;;;;;12.10;7.30;;;;;;;18.50;47.10;101729.75;4977502;28;20033;-90
2022/05/12 05:03:02;;;;;;;12.75;7.35;;;;;;;18.86;47.00;101721.28;4978961;28;20517;-89
2022/05/12 05:05:28;;;;;;;13.65;7.07;;;;;;;19.00;46.50;101717.75;4978662;28;20107;-92
2022/05/12 05:07:54;;;;;;;11.95;7.40;;;;;;;18.97;47.08;101733.66;4989583;28;20484;-90
2022/05/12 05:10:19;;;;;;;37.95;9.05;;;;;;;18.83;47.50;101737.22;4978234;28;20080;-93
2022/05/12 05:12:45;;;;;;;9.60;6.90;;;;;;;18.59;48.24;101737.03;4993884;28;20017;-94
2022/05/12 05:15:11;;;;;;;12.07;8.70;;;;;;;18.52;48.27;101737.53;4978526;28;20069;-92
2022/05/12 05:17:37;;;;;;;15.57;8.38;;;;;;;18.41;48.18;101734.75;4977446;28;20030;-93
2022/05/12 05:20:07;;;;;;;13.93;8.30;;;;;;;18.56;48.58;101744.22;4976580;28;20026;-90
2022/05/12 05:22:33;;;;;;;21.55;11.38;;;;;;;18.55;48.75;101748.63;4989338;28;20022;-88
2022/05/12 05:24:59;;;;;;;20.63;12.75;;;;;;;18.60;49.33;101736.09;4974978;28;20046;-90
2022/05/12 05:27:24;;;;;;;20.63;9.73;;;;;;;18.90;48.92;101741.13;5005388;28;20034;-86
2022/05/12 05:29:51;;;;;;;14.57;8.63;;;;;;;19.19;47.49;101733.94;5008787;28;20092;-86
2022/05/12 05:32:16;;;;;;;16.33;8.23;;;;;;;19.44;47.78;101721.75;5008103;28;20069;-87
2022/05/12 05:34:42;;;;;;;17.15;8.70;;;;;;;19.54;47.16;101712.28;4993113;28;20045;-91
2022/05/12 05:37:07;;;;;;;14.40;8.63;;;;;;;19.93;46.64;101729.69;4994497;28;20056;-88
2022/05/12 05:39:33;;;;;;;15.48;9.15;;;;;;;20.16;46.88;101743.84;5012978;28;20137;-89
2022/05/12 05:42:01;;;;;;;13.43;7.55;;;;;;;20.27;45.07;101756.22;4977221;28;20053;-91
2022/05/12 05:44:28;;;;;;;11.05;6.40;;;;;;;20.09;44.87;101745.22;5001029;28;20396;-92
2022/05/12 05:46:54;;;;;;;18.10;10.77;;;;;;;20.07;45.92;101752.38;5027995;28;20030;-91
2022/05/12 05:49:20;;;;;;;14.82;7.78;;;;;;;20.27;44.76;101759.69;4994586;28;20030;-87
2022/05/12 05:54:31;;;;;;;18.95;9.55;;;;;;;20.49;44.95;101753.72;5010941;28;20065;-90
2022/05/12 05:56:57;;;;;;;21.15;12.70;;;;;;;20.52;45.03;101752.66;4993838;28;20030;-90
2022/05/12 05:59:23;;;;;;;14.45;9.57;;;;;;;20.45;45.15;101740.91;4980421;28;20501;-89
2022/05/12 06:01:49;;;;;;;11.52;7.38;;;;;;;20.72;44.49;101759.09;4993042;28;20030;-92
2022/05/12 06:04:16;;;;;;;10.25;7.45;;;;;;;21.01;44.38;101759.56;4982634;28;20045;-85
2022/05/12 06:06:42;;;;;;;8.35;6.20;;;;;;;20.85;43.44;101744.94;5011379;28;20112;-87
2022/05/12 06:09:07;;;;;;;7.65;6.10;;;;;;;20.61;44.53;101762.50;5000911;28;20030;-85
2022/05/12 06:11:33;;;;;;;8.13;6.43;;;;;;;20.52;43.60;101756.13;5027751;28;20056;-92
2022/05/12 06:13:59;;;;;;;13.93;7.22;;;;;;;20.55;44.66;101752.44;5015677;28;20030;-93
2022/05/12 06:16:24;;;;;;;10.02;7.13;;;;;;;20.77;45.41;101755.19;5014423;28;20030;-92
2022/05/12 06:18:50;;;;;;;11.63;8.52;;;;;;;20.38;45.79;101758.06;4986759;28;20026;-86
2022/05/12 06:21:16;;;;;;;17.65;11.15;;;;;;;20.10;47.73;101757.41;4991486;28;20037;-90
2022/05/12 06:23:41;;;;;;;14.70;9.68;;;;;;;19.89;48.47;101762.41;5008906;28;20034;-88
2022/05/12 06:26:13;;;;;;;13.45;9.13;;;;;;;19.80;48.96;101749.06;4994551;28;20029;-92
2022/05/12 06:28:40;;;;;;;9.18;8.18;;;;;;;19.89;49.14;101761.56;4987834;28;20038;-88
2022/05/12 06:31:06;;;;;;;10.73;7.78;;;;;;;19.60;48.83;101753.91;4987372;28;20491;-83
2022/05/12 06:33:33;;;;;;;11.35;8.07;;;;;;;19.74;48.86;101764.28;5019520;28;20058;-90
2022/05/12 06:36:02;;;;;;;11.10;7.72;;;;;;;20.04;48.52;101760.47;5022775;28;20491;-84
2022/05/12 06:38:27;;;;;;;10.13;7.10;;;;;;;20.12;46.83;101766.00;5004654;28;20511;-88
2022/05/12 06:40:53;;;;;;;9.38;7.15;;;;;;;19.92;47.53;101769.22;4999253;28;20057;-85
2022/05/12 06:43:18;;;;;;;10.23;7.50;;;;;;;19.88;49.54;101767.75;4985793;28;20103;-86
2022/05/12 06:45:44;;;;;;;9.75;7.50;;;;;;;20.31;48.20;101766.38;5021800;28;20088;-91
2022/05/12 06:48:09;;;;;;;9.80;6.78;;;;;;;20.44;47.09;101765.50;5002062;28;20091;-87
2022/05/12 06:50:35;;;;;;;9.60;7.00;;;;;;;20.32;46.30;101725.16;5000192;28;20388;-86
2022/05/12 06:53:00;;;;;;;8.98;7.25;;;;;;;20.52;46.59;101765.81;5009790;28;20029;-91
2022/05/12 06:55:29;;;;;;;15.13;12.95;;;;;;;20.56;46.00;101756.75;5008834;28;20495;-86
2022/05/12 06:57:55;;;;;;;9.38;8.38;;;;;;;20.80;46.06;101770.72;4990447;28;21549;-85
2022/05/12 07:00:21;;;;;;;9.40;6.88;;;;;;;20.90;45.59;101748.03;5010268;28;20044;-92
2022/05/12 07:02:51;;;;;;;10.63;7.65;;;;;;;20.90;46.51;101736.69;5012109;28;20033;-91
2022/05/12 07:05:19;;;;;;;13.85;8.43;;;;;;;21.07;45.01;101749.41;5003632;28;20495;-87
2022/05/12 07:07:45;;;;;;;12.02;7.13;;;;;;;21.04;45.01;101744.41;5008736;28;20078;-81
2022/05/12 07:10:11;;;;;;;11.18;6.57;;;;;;;20.80;44.81;101699.72;5025345;28;20945;-85
2022/05/12 07:12:37;;;;;;;10.13;8.23;;;;;;;21.26;47.07;101753.28;5008675;28;20041;-92
2022/05/12 07:15:02;;;;;;;9.18;7.55;;;;;;;21.27;44.75;101733.94;5008216;28;20064;-90
2022/05/12 07:17:29;;;;;;;7.45;6.60;;;;;;;21.38;44.73;101742.69;4969808;28;20034;-94
2022/05/12 07:26:35;;;;;;;8.73;7.50;;;;;;;21.56;45.20;101750.97;5003684;28;20021;-88
2022/05/12 07:28:11;;;;;;;25.88;16.90;;;;;;;21.58;45.50;101742.94;4989570;28;20052;-88
2022/05/12 07:31:00;;;;;;;11.18;7.55;;;;;;;21.56;44.17;101737.81;4993964;28;20450;-84
2022/05/12 07:33:22;;;;;;;9.77;7.28;;;;;;;21.80;43.48;101728.94;4995528;28;20413;-86
2022/05/12 07:35:47;;;;;;;10.55;6.90;;;;;;;21.98;43.29;101733.59;5021418;28;20038;-94
2022/05/12 07:38:13;;;;;;;11.50;7.22;;;;;;;22.15;43.63;101727.00;4994839;28;20038;-91
2022/05/12 07:40:38;;;;;;;13.63;10.35;;;;;;;22.42;43.30;101737.13;5000691;28;20777;-93
2022/05/12 07:43:04;;;;;;;10.77;7.05;;;;;;;22.52;42.57;101740.69;4946034;28;20077;-85
2022/05/12 07:45:29;;;;;;;10.60;7.60;;;;;;;22.65;42.48;101739.66;5020156;28;20056;-88
2022/05/12 07:47:55;;;;;;;8.40;7.53;;;;;;;22.78;43.02;101738.53;5020055;28;20045;-86
2022/05/12 07:50:21;;;;;;;9.00;6.85;;;;;;;22.90;41.81;101741.97;4987617;28;20046;-88
2022/05/12 07:52:46;;;;;;;14.38;7.93;;;;;;;22.95;41.74;101742.44;4987986;28;20494;-91
2022/05/12 07:55:13;;;;;;;12.60;8.35;;;;;;;23.11;42.00;101732.28;5010622;28;20411;-91
2022/05/12 07:57:39;;;;;;;10.20;7.60;;;;;;;23.29;41.08;101742.22;5020555;28;20109;-86
2022/05/12 08:00:05;;;;;;;10.05;7.13;;;;;;;23.19;40.53;101727.16;5000964;28;20981;-90
2022/05/12 08:02:31;;;;;;;12.20;7.65;;;;;;;23.42;42.16;101743.69;5019847;28;20030;-88
2022/05/12 08:04:57;;;;;;;9.13;7.93;;;;;;;23.45;40.98;101714.38;5001744;28;20026;-90
2022/05/12 08:07:23;;;;;;;9.95;7.15;;;;;;;23.69;39.42;101729.09;4990009;28;20040;-88
2022/05/12 08:09:48;;;;;;;11.90;7.43;;;;;;;23.70;41.07;101701.72;5022874;28;20127;-87
2022/05/12 08:12:15;;;;;;;15.07;9.20;;;;;;;24.10;39.42;101736.03;5006131;28;20034;-88
2022/05/12 08:14:41;;;;;;;11.02;7.10;;;;;;;24.36;38.82;101735.53;5006605;28;20041;-88
2022/05/12 08:17:06;;;;;;;8.45;6.45;;;;;;;24.60;37.78;101733.34;4971482;28;20038;-87
2022/05/12 08:19:33;;;;;;;9.60;7.32;;;;;;;24.84;38.14;101731.09;4999884;28;20499;-90
2022/05/12 08:21:59;;;;;;;8.82;6.57;;;;;;;24.99;37.14;101712.13;5023198;28;20104;-89
2022/05/12 08:24:24;;;;;;;13.10;7.10;;;;;;;24.97;36.91;101729.94;4969261;28;20029;-91
2022/05/12 08:26:50;;;;;;;7.93;6.55;;;;;;;25.06;36.91;101722.03;4971999;28;20037;-89
2022/05/12 08:29:15;;;;;;;7.68;6.50;;;;;;;25.11;37.20;101717.16;5005099;28;20026;-93
2022/05/12 08:31:41;;;;;;;9.95;6.47;;;;;;;25.38;35.75;101732.28;4966334;28;20037;-85
2022/05/12 08:34:06;;;;;;;8.77;6.43;;;;;;;25.36;37.61;101710.38;4978992;28;20037;-86
2022/05/12 08:36:32;;;;;;;9.73;6.82;;;;;;;25.39;35.86;101720.69;4999453;28;20041;-87
2022/05/12 08:38:57;;;;;;;7.28;6.32;;;;;;;25.35;35.87;101708.69;4999679;28;20053;-88
2022/05/12 08:41:36;;;;;;;11.30;9.88;;;;;;;25.63;36.84;101712.22;4968021;28;20042;-85
2022/05/12 08:44:13;;;;;;;23.67;16.52;;;;;;;25.93;35.98;101711.09;4999786;28;20054;-87
2022/05/12 08:46:44;;;;;;;9.48;6.88;;;;;;;26.25;36.03;101707.13;4988693;28;20117;-91
2022/05/12 08:49:45;;;;;;;10.30;7.00;;;;;;;26.41;34.89;101706.47;5017580;28;20410;-87
2022/05/12 08:52:18;;;;;;;10.45;6.75;;;;;;;26.38;35.20;101712.94;4985618;28;20589;-88
2022/05/12 08:54:56;;;;;;;9.02;6.38;;;;;;;26.48;33.77;101711.03;4986371;28;20498;-90
2022/05/12 08:57:32;;;;;;;7.80;6.20;;;;;;;26.56;34.03;101715.59;4995959;28;20117;-88
2022/05/12 09:00:00;;;;;;;10.40;6.43;;;;;;;26.63;33.97;101710.47;5003214;28;20065;-87
2022/05/12 09:02:36;;;;;;;12.13;6.15;;;;;;;26.83;34.01;101696.84;5007196;28;20048;-89
2022/05/12 09:05:12;;;;;;;9.77;6.40;;;;;;;27.19;33.48;101717.22;5006584;28;20038;-86
2022/05/12 09:07:45;;;;;;;6.10;5.50;;;;;;;27.43;32.87;101704.03;5006610;28;20049;-87
2022/05/12 09:10:17;;;;;;;8.43;6.10;;;;;;;27.71;33.78;101702.88;5003174;28;20029;-87
2022/05/12 09:12:49;;;;;;;9.25;6.03;;;;;;;27.72;31.43;101699.22;5027272;28;20180;-87
2022/05/12 09:15:18;;;;;;;31.15;24.45;;;;;;;27.86;32.14;101715.56;5005768;28;20072;-86
2022/05/12 09:17:48;;;;;;;41.70;30.20;;;;;;;27.89;31.35;101700.09;5002898;28;20026;-87
2022/05/12 09:20:13;;;;;;;14.75;11.00;;;;;;;28.01;31.50;101708.59;4986242;28;20114;-87
2022/05/12 09:22:39;;;;;;;7.63;6.60;;;;;;;28.28;31.11;101700.38;5001744;28;20066;-93
2022/05/12 09:25:06;;;;;;;9.85;5.55;;;;;;;28.03;29.62;101674.72;5002827;28;20036;-88
2022/05/12 09:27:36;;;;;;;5.82;4.60;;;;;;;28.23;27.90;101681.41;5005450;28;20049;-88
2022/05/12 09:30:02;;;;;;;5.75;4.68;;;;;;;28.14;27.22;101685.03;5003006;28;20120;-90
2022/05/12 09:32:32;;;;;;;6.10;4.55;;;;;;;28.17;27.20;101692.69;5009004;28;20030;-88
2022/05/12 09:35:10;;;;;;;5.40;4.25;;;;;;;28.20;26.60;101657.75;5020776;28;20802;-88
2022/05/12 09:37:37;;;;;;;5.22;4.72;;;;;;;28.44;26.91;101672.13;5007639;28;20117;-92
2022/05/12 09:40:21;;;;;;;5.85;4.90;;;;;;;28.74;27.40;101679.41;5004604;28;20046;-88
2022/05/12 09:42:51;;;;;;;8.75;4.82;;;;;;;28.49;26.50;101672.44;4978986;28;20109;-87
2022/05/12 09:45:20;;;;;;;6.93;4.40;;;;;;;28.74;27.34;101673.25;5005404;28;20032;-90
2022/05/12 09:47:45;;;;;;;7.13;4.93;;;;;;;28.98;26.69;101665.25;5008052;28;20026;-91
2022/05/12 09:50:20;;;;;;;9.57;5.45;;;;;;;29.17;26.04;101663.19;5003367;28;20100;-85
2022/05/12 09:52:57;;;;;;;8.13;4.93;;;;;;;29.23;25.74;101659.84;5025042;28;20413;-86
2022/05/12 09:55:33;;;;;;;5.65;4.95;;;;;;;29.23;25.80;101660.69;5011588;28;20133;-87
2022/05/12 09:58:01;;;;;;;7.05;6.28;;;;;;;29.05;26.36;101649.41;5024764;28;20037;-87
2022/05/12 10:00:39;;;;;;;5.57;4.57;;;;;;;29.42;25.19;101657.59;4977031;28;20686;-90
2022/05/12 10:09:10;;;;;;;25.92;23.17;;;;;;;29.51;24.18;101641.59;5017132;28;20088;-86
2022/05/12 10:11:46;;;;;;;8.07;5.90;;;;;;;29.31;24.36;101622.50;5006865;28;20044;-84
2022/05/12 10:14:18;;;;;;;62.95;56.83;;;;;;;29.46;24.95;101628.75;5008254;28;20041;-84
2022/05/12 10:16:44;;;;;;;13.45;11.05;;;;;;;29.68;23.83;101628.00;5008116;28;20410;-86
2022/05/12 10:19:14;;;;;;;5.53;4.50;;;;;;;30.02;23.46;101631.28;4987167;28;20030;-88
2022/05/12 10:21:44;;;;;;;7.03;4.55;;;;;;;30.28;23.20;101637.09;4972929;28;20038;-88
2022/05/12 10:24:13;;;;;;;7.90;4.32;;;;;;;30.43;22.70;101640.63;4980404;28;20414;-84
2022/05/12 10:26:48;;;;;;;5.20;4.40;;;;;;;30.45;23.46;101627.09;5003423;28;20160;-84
2022/05/12 10:29:49;;;;;;;5.30;4.35;;;;;;;30.51;23.35;101637.91;5000786;28;20108;-87
2022/05/12 10:32:35;;;;;;;6.72;4.30;;;;;;;30.36;22.71;101626.34;4988018;28;21402;-93
2022/05/12 10:35:33;;;;;;;6.88;4.25;;;;;;;30.10;22.96;101617.91;5001549;28;21176;-85
2022/05/12 10:38:04;;;;;;;4.88;4.20;;;;;;;30.14;23.49;101613.88;4997443;28;20114;-88
2022/05/12 10:40:49;;;;;;;5.00;4.50;;;;;;;30.08;23.37;101612.72;5025541;28;20454;-86
2022/05/12 10:43:21;;;;;;;6.63;4.15;;;;;;;30.18;23.46;101612.50;4991732;28;20050;-91
2022/05/12 10:46:11;;;;;;;4.93;3.97;;;;;;;30.27;23.32;101603.41;5020363;28;20453;-85
2022/05/12 10:48:36;;;;;;;5.68;4.13;;;;;;;30.29;23.28;101580.06;5013515;28;20042;-83
2022/05/12 10:51:23;;;;;;;6.80;4.30;;;;;;;30.47;23.33;101590.38;5005504;28;20109;-85
2022/05/12 10:54:21;;;;;;;6.35;4.18;;;;;;;30.49;24.08;101601.72;5008449;28;20061;-82
2022/05/12 10:57:05;;;;;;;4.75;4.20;;;;;;;30.60;23.50;101595.09;5005644;28;20041;-87
2022/05/12 10:59:42;;;;;;;5.43;4.20;;;;;;;30.48;22.49;101590.22;5004190;28;20064;-88
2022/05/12 11:02:19;;;;;;;7.13;4.40;;;;;;;30.53;23.26;101590.47;5008239;28;20030;-94
2022/05/12 11:05:01;;;;;;;8.80;4.40;;;;;;;30.68;23.52;101587.00;5003620;28;20030;-90
2022/05/12 11:07:31;;;;;;;7.13;4.57;;;;;;;30.77;22.61;101589.41;5005867;28;20104;-89
2022/05/12 11:10:29;;;;;;;4.85;4.25;;;;;;;30.81;22.58;101579.19;5021340;28;20514;-89
2022/05/12 11:13:12;;;;;;;4.78;4.07;;;;;;;30.71;22.68;101573.31;5001576;28;20030;-89
2022/05/12 11:15:45;;;;;;;5.68;4.30;;;;;;;30.65;22.62;101574.03;5005622;28;20116;-88
2022/05/12 11:18:15;;;;;;;5.68;4.20;;;;;;;30.49;23.11;101578.50;5007217;28;20089;-91
2022/05/12 11:20:43;;;;;;;5.90;3.92;;;;;;;30.63;22.67;101560.84;5004302;28;20495;-87
2022/05/12 11:23:42;;;;;;;6.15;4.05;;;;;;;30.63;22.56;101576.84;5007270;28;20044;-91
2022/05/12 11:26:32;;;;;;;5.13;4.00;;;;;;;30.64;22.49;101569.66;5003690;28;20026;-88
2022/05/12 11:29:48;;;;;;;4.40;4.00;;;;;;;30.80;22.67;101562.34;5004093;28;20068;-88
2022/05/12 11:32:32;;;;;;;4.32;3.90;;;;;;;30.90;23.20;101562.06;5019001;28;20034;-92
2022/05/12 11:35:12;;;;;;;4.85;4.30;;;;;;;30.93;22.67;101545.66;5001047;28;20030;-86
2022/05/12 11:37:40;;;;;;;6.13;4.00;;;;;;;31.02;22.35;101551.72;4982667;28;20069;-83
2022/05/12 11:40:33;;;;;;;4.18;3.78;;;;;;;31.01;22.02;101537.53;5005169;28;20557;-90
2022/05/12 11:45:47;;;;;;;10.35;9.27;;;;;;;31.27;22.41;101541.56;4993973;28;20033;-86
2022/05/12 11:48:19;;;;;;;4.85;4.00;;;;;;;31.42;21.86;101539.66;4992269;28;20458;-81
2022/05/12 11:51:02;;;;;;;16.10;14.35;;;;;;;31.63;22.29;101542.34;5008599;28;20229;-84
2022/05/12 11:53:45;;;;;;;21.83;19.48;;;;;;;31.60;22.20;101537.38;4989689;28;20545;-82